Aérodrome :
LOGIN :

S'inscrire | Disclaimer

   EN    FR    IT 

 










Légende :    VFR   VFR Marginal   IFR   IFR Intensif   IFR Très Intensif
Visi : 
Plafond : 
>= 8 km
>= 3000ft
5 à 8 km
1000 à 3000 ft
1500m à 5 km
500 à 1000 ft
800 à 1500m
200 à 500 ft
< 800m
< 200 ft
Symboles :   Orages  Brouillard  Fortes neiges  Fortes précipitations  Vent > 20 kt
SIGMETs :   Divers  Orages  Givrage  Turbulence  Onde Orograph.  Cendres Volcan.






- Altitude de l'aérodrome : 844 ft
- Code IATA : OSR


LKMT - Ostrava-Mosnov

DERNIER METAR :
  • 032000Z 01002KT CAVOK 21/15 Q1018 NOSIG

METARs EXPIRÉS :
  • 031930Z 04003KT 270V070 CAVOK 22/15 Q1018 NOSIG
  • 031900Z 01004KT CAVOK 21/16 Q1017 NOSIG
  • 031830Z 36003KT CAVOK 24/16 Q1017 NOSIG
  • 030500Z 01004KT 6000 OVC005 15/15 Q1021 BECMG NSW
  • 031800Z VRB02KT CAVOK 26/16 Q1017 NOSIG
  • 031730Z 02004KT 340V050 CAVOK 26/16 Q1017 NOSIG

TAF TAF LKMT
Valide du 03 à 18h jusqu'au 05 à 00h UTC


031700Z 0318/0500 VRB02KT CAVOK
BECMG 0320/0322 21004KT
PROB30
TEMPO 0322/0404 4000 BR NSC
TEMPO 0421/0500 7000 SHRA BKN036



MET'MAP, la Météo Aéronautique d'un coup d'oeil ! - Copyright ORBIFLY Décembre 2007 - Disclaimer

ORBIFLY MET'MAP TEAM :

Programmation & Développement : Alexandra Zaïnal
Sur une idée originale de : Baudouin d'Aumeries
Soutien technique & logistique : Manuel Goepfert
Assistance : Marc-Olivier Méhu




SOURCES & CREDITS :

   NOAA